createdAt,value
2017-07-07T00:00:18.361Z,100731.05
2017-07-07T00:02:44.724Z,100723.14
2017-07-07T00:05:11.733Z,100726.81
2017-07-07T00:07:38.126Z,100725.79
2017-07-07T00:10:04.508Z,100715.66
2017-07-07T00:12:30.895Z,100722.86
2017-07-07T00:14:57.281Z,100712.89
2017-07-07T00:17:23.681Z,100705.22
2017-07-07T00:19:50.354Z,100708.35
2017-07-07T00:22:16.793Z,100701.83
2017-07-07T00:24:43.181Z,100694.69
2017-07-07T00:27:09.831Z,100702.25
2017-07-07T00:29:36.345Z,100696.34
2017-07-07T00:32:02.801Z,100701.52
2017-07-07T00:34:29.262Z,100694.73
2017-07-07T00:36:55.635Z,100694.58
2017-07-07T00:39:22.376Z,100688.45
2017-07-07T00:41:48.737Z,100685.92
2017-07-07T00:44:15.098Z,100686.62
2017-07-07T00:46:41.973Z,100689.08
2017-07-07T00:49:08.396Z,100675.83
2017-07-07T00:51:34.759Z,100671.34
2017-07-07T00:54:01.076Z,100668.58
2017-07-07T00:56:27.423Z,100668.13
2017-07-07T00:58:53.779Z,100663.98
2017-07-07T01:01:20.133Z,100656.66
2017-07-07T01:03:46.491Z,100653.95
2017-07-07T01:06:12.826Z,100639.53
2017-07-07T01:08:39.180Z,100641.58
2017-07-07T01:11:05.661Z,100638.89
2017-07-07T01:13:32.035Z,100641.99
2017-07-07T01:15:58.416Z,100640.34
2017-07-07T01:18:24.794Z,100641.23
2017-07-07T01:20:51.137Z,100632.41
2017-07-07T01:23:17.488Z,100640.84
2017-07-07T01:25:43.855Z,100628.66
2017-07-07T01:28:10.225Z,100624.48
2017-07-07T01:30:36.653Z,100617.04
2017-07-07T01:33:03.040Z,100606.83
2017-07-07T01:35:29.433Z,100604.86
2017-07-07T01:37:55.836Z,100604.48
2017-07-07T01:40:22.201Z,100603.60
2017-07-07T01:42:48.590Z,100589.20
2017-07-07T01:45:14.975Z,100591.11
2017-07-07T01:47:41.354Z,100598.20
2017-07-07T01:50:07.814Z,100592.98
2017-07-07T01:52:34.199Z,100590.38
2017-07-07T01:55:00.559Z,100592.44
2017-07-07T01:57:26.979Z,100591.84
2017-07-07T01:59:53.625Z,100586.52
2017-07-07T02:02:19.988Z,100586.52
2017-07-07T02:04:46.382Z,100576.19
2017-07-07T02:07:12.763Z,100570.70
2017-07-07T02:09:39.140Z,100570.45
2017-07-07T02:12:05.507Z,100578.77
2017-07-07T02:14:31.893Z,100578.89
2017-07-07T02:16:58.379Z,100579.99
2017-07-07T02:19:24.753Z,100582.73
2017-07-07T02:21:51.168Z,100582.21
2017-07-07T02:24:17.556Z,100594.82
2017-07-07T02:26:43.911Z,100603.02
2017-07-07T02:29:10.312Z,100602.50
2017-07-07T02:31:36.673Z,100595.59
2017-07-07T02:34:03.034Z,100591.88
2017-07-07T02:36:29.425Z,100601.31
2017-07-07T02:38:55.784Z,100603.97
2017-07-07T02:41:22.140Z,100610.13
2017-07-07T02:43:48.493Z,100599.05
2017-07-07T02:46:14.857Z,100600.44
2017-07-07T02:48:41.212Z,100605.42
2017-07-07T02:51:07.605Z,100607.89
2017-07-07T02:53:33.971Z,100598.27
2017-07-07T02:56:00.337Z,100593.28
2017-07-07T02:58:26.721Z,100600.86
2017-07-07T03:00:53.104Z,100603.47
2017-07-07T03:03:19.472Z,100593.61
2017-07-07T03:05:45.851Z,100605.68
2017-07-07T03:08:12.188Z,100610.33
2017-07-07T03:10:38.548Z,100590.19
2017-07-07T03:13:04.969Z,100608.36
2017-07-07T03:15:31.338Z,100617.02
2017-07-07T03:17:57.703Z,100627.95
2017-07-07T03:20:24.070Z,100646.89
2017-07-07T03:22:50.429Z,100657.41
2017-07-07T03:25:16.778Z,100644.10
2017-07-07T03:27:43.144Z,100650.52
2017-07-07T03:30:09.495Z,100646.21
2017-07-07T03:32:35.840Z,100658.53
2017-07-07T03:35:02.211Z,100661.70
2017-07-07T03:37:28.564Z,100652.76
2017-07-07T03:39:54.933Z,100664.61
2017-07-07T03:42:21.321Z,100667.39
2017-07-07T03:44:47.678Z,100692.14
2017-07-07T03:47:14.027Z,100703.70
2017-07-07T03:49:40.364Z,100701.19
2017-07-07T03:52:06.724Z,100701.67
2017-07-07T03:54:33.085Z,100693.38
2017-07-07T03:56:59.453Z,100698.61
2017-07-07T03:59:25.811Z,100690.12
2017-07-07T04:01:52.166Z,100685.08
2017-07-07T04:04:18.529Z,100688.16
2017-07-07T04:06:44.883Z,100683.80
2017-07-07T04:09:11.259Z,100678.78
2017-07-07T04:11:37.615Z,100673.27
2017-07-07T04:14:03.987Z,100672.20
2017-07-07T04:16:30.385Z,100663.38
2017-07-07T04:18:56.772Z,100665.63
2017-07-07T04:21:23.127Z,100657.01
2017-07-07T04:23:49.504Z,100649.75
2017-07-07T04:26:15.840Z,100655.36
2017-07-07T04:28:42.206Z,100642.58
2017-07-07T04:31:08.594Z,100646.51
2017-07-07T04:33:34.949Z,100638.33
2017-07-07T04:36:05.298Z,100634.80
2017-07-07T04:38:33.123Z,100635.17
2017-07-07T04:40:59.485Z,100631.11
2017-07-07T04:43:25.866Z,100634.47
2017-07-07T04:45:52.214Z,100635.22
2017-07-07T04:48:18.596Z,100630.35
2017-07-07T04:50:44.982Z,100636.98
2017-07-07T04:53:11.358Z,100626.75
2017-07-07T04:55:37.738Z,100629.56
2017-07-07T04:58:05.109Z,100626.39
2017-07-07T05:00:31.663Z,100625.62
2017-07-07T05:02:58.188Z,100628.33
2017-07-07T05:05:25.823Z,100622.50
2017-07-07T05:07:52.786Z,100620.95
2017-07-07T05:10:19.385Z,100624.25
2017-07-07T05:12:45.868Z,100621.36
2017-07-07T05:15:12.277Z,100618.36
2017-07-07T05:17:39.684Z,100619.23
2017-07-07T05:20:11.203Z,100616.13
2017-07-07T05:22:37.595Z,100612.20
2017-07-07T05:25:04.035Z,100602.33
2017-07-07T05:27:30.508Z,100610.16
2017-07-07T05:29:56.915Z,100600.84
2017-07-07T05:32:24.226Z,100604.48
2017-07-07T05:34:50.634Z,100602.10
2017-07-07T05:37:17.082Z,100596.89
2017-07-07T05:39:43.528Z,100599.27
2017-07-07T05:42:09.972Z,100597.02
2017-07-07T05:44:36.500Z,100595.48
2017-07-07T05:47:02.990Z,100599.86
2017-07-07T05:49:29.949Z,100589.36
2017-07-07T05:51:56.465Z,100593.48
2017-07-07T05:54:23.009Z,100591.83
2017-07-07T05:59:22.020Z,100597.30
2017-07-07T06:01:48.549Z,100590.19
2017-07-07T06:04:15.035Z,100589.63
2017-07-07T06:06:41.619Z,100589.86
2017-07-07T06:09:08.184Z,100596.94
2017-07-07T06:11:34.704Z,100598.13
2017-07-07T06:14:01.266Z,100591.33
2017-07-07T06:16:27.561Z,100600.41
2017-07-07T06:18:53.743Z,100594.41
2017-07-07T06:21:19.923Z,100592.83
2017-07-07T06:23:46.342Z,100597.61
2017-07-07T06:26:12.939Z,100593.95
2017-07-07T06:28:39.584Z,100599.05
2017-07-07T06:31:06.030Z,100604.32
2017-07-07T06:33:33.334Z,100593.63
2017-07-07T06:35:59.877Z,100596.20
2017-07-07T06:38:31.495Z,100595.30
2017-07-07T06:40:58.025Z,100599.70
2017-07-07T06:43:24.469Z,100596.59
2017-07-07T06:45:50.917Z,100599.02
2017-07-07T06:48:17.471Z,100606.64
2017-07-07T06:50:43.872Z,100610.41
2017-07-07T06:53:11.338Z,100610.41
2017-07-07T06:55:37.760Z,100599.60
2017-07-07T06:58:04.312Z,100605.31
2017-07-07T07:00:30.827Z,100600.73
2017-07-07T07:02:57.269Z,100612.34
2017-07-07T07:05:23.722Z,100623.05
2017-07-07T07:07:50.252Z,100616.50
2017-07-07T07:10:16.697Z,100611.34
2017-07-07T07:12:43.100Z,100608.91
2017-07-07T07:15:09.558Z,100615.57
2017-07-07T07:17:36.121Z,100606.63
2017-07-07T07:20:02.558Z,100611.02
2017-07-07T07:22:28.962Z,100613.64
2017-07-07T07:24:55.454Z,100613.97
2017-07-07T07:27:21.955Z,100618.39
2017-07-07T07:29:48.416Z,100611.44
2017-07-07T07:32:14.819Z,100615.27
2017-07-07T07:34:41.229Z,100619.29
2017-07-07T07:37:07.656Z,100618.14
2017-07-07T07:39:34.036Z,100635.69
2017-07-07T07:42:00.479Z,100635.52
2017-07-07T07:44:26.893Z,100640.54
2017-07-07T07:46:53.271Z,100635.98
2017-07-07T07:49:19.710Z,100632.02
2017-07-07T07:51:46.210Z,100636.45
2017-07-07T07:54:12.649Z,100637.92
2017-07-07T07:56:39.475Z,100641.25
2017-07-07T07:59:05.915Z,100640.89
2017-07-07T08:01:32.371Z,100633.64
2017-07-07T08:03:58.853Z,100633.63
2017-07-07T08:06:25.245Z,100631.80
2017-07-07T08:08:51.719Z,100635.77
2017-07-07T08:11:18.097Z,100631.03
2017-07-07T08:13:44.546Z,100631.52
2017-07-07T08:16:10.956Z,100633.45
2017-07-07T08:18:37.538Z,100626.55
2017-07-07T08:21:03.956Z,100620.52
2017-07-07T08:23:30.341Z,100630.13
2017-07-07T08:25:56.812Z,100627.61
2017-07-07T08:28:23.252Z,100625.67
2017-07-07T08:30:49.657Z,100618.83
2017-07-07T08:33:16.118Z,100613.30
2017-07-07T08:35:42.523Z,100607.09
2017-07-07T08:38:08.999Z,100615.06
2017-07-07T08:40:35.501Z,100612.12
2017-07-07T08:43:01.951Z,100619.30
2017-07-07T08:45:28.359Z,100619.62
2017-07-07T08:47:55.214Z,100632.48
2017-07-07T08:50:21.645Z,100619.52
2017-07-07T08:52:48.112Z,100629.06
2017-07-07T08:55:14.517Z,100619.19
2017-07-07T08:57:41.482Z,100624.64
2017-07-07T09:00:07.892Z,100622.94
2017-07-07T09:02:34.341Z,100620.25
2017-07-07T09:05:00.789Z,100621.12
2017-07-07T09:07:27.204Z,100622.98
2017-07-07T09:09:53.589Z,100620.45
2017-07-07T09:12:19.993Z,100633.17
2017-07-07T09:14:46.781Z,100630.66
2017-07-07T09:17:13.192Z,100627.55
2017-07-07T09:19:39.629Z,100629.63
2017-07-07T09:22:06.034Z,100636.95
2017-07-07T09:24:32.468Z,100639.33
2017-07-07T09:26:58.866Z,100641.89
2017-07-07T09:29:25.288Z,100644.52
2017-07-07T09:31:51.694Z,100635.34
2017-07-07T09:34:18.109Z,100640.53
2017-07-07T09:36:44.463Z,100644.97
2017-07-07T09:39:10.884Z,100633.79
2017-07-07T09:41:37.373Z,100639.08
2017-07-07T09:44:04.005Z,100640.91
2017-07-07T09:46:30.500Z,100647.95
2017-07-07T09:48:56.876Z,100652.52
2017-07-07T09:51:23.305Z,100646.98
2017-07-07T09:53:49.703Z,100642.66
2017-07-07T09:56:16.079Z,100650.47
2017-07-07T09:58:42.466Z,100643.91
2017-07-07T10:01:08.888Z,100651.34
2017-07-07T10:03:35.532Z,100655.72
2017-07-07T10:06:01.945Z,100657.09
2017-07-07T10:08:28.369Z,100651.78
2017-07-07T10:10:54.793Z,100648.05
2017-07-07T10:13:21.190Z,100648.11
2017-07-07T10:15:47.827Z,100648.86
2017-07-07T10:18:14.288Z,100646.97
2017-07-07T10:20:40.738Z,100648.08
2017-07-07T10:23:07.126Z,100649.56
2017-07-07T10:25:33.528Z,100646.02
2017-07-07T10:27:59.931Z,100645.52
2017-07-07T10:30:26.332Z,100647.08
2017-07-07T10:32:52.712Z,100643.77
2017-07-07T10:35:19.259Z,100644.79
2017-07-07T10:37:45.661Z,100635.80
2017-07-07T10:40:12.157Z,100638.84
2017-07-07T10:42:38.556Z,100637.31
2017-07-07T10:45:04.982Z,100637.05
2017-07-07T10:47:31.408Z,100627.27
2017-07-07T10:49:57.829Z,100638.94
2017-07-07T10:52:24.264Z,100641.53
2017-07-07T10:54:55.199Z,100654.16
2017-07-07T10:57:26.889Z,100641.17
2017-07-07T10:59:53.315Z,100639.98
2017-07-07T11:02:19.723Z,100649.30
2017-07-07T11:04:46.148Z,100649.77
2017-07-07T11:07:12.562Z,100644.73
2017-07-07T11:09:39.042Z,100646.72
2017-07-07T11:12:05.446Z,100648.66
2017-07-07T11:14:31.864Z,100645.34
2017-07-07T11:16:58.255Z,100647.78
2017-07-07T11:19:24.631Z,100652.42
2017-07-07T11:21:51.071Z,100664.37
2017-07-07T11:24:17.451Z,100663.80
2017-07-07T11:26:43.852Z,100666.53
2017-07-07T11:29:10.266Z,100673.52
2017-07-07T11:31:36.699Z,100676.75
2017-07-07T11:34:03.126Z,100668.83
2017-07-07T11:36:29.515Z,100668.50
2017-07-07T11:38:55.922Z,100669.30
2017-07-07T11:41:22.333Z,100667.36
2017-07-07T11:43:48.699Z,100667.97
2017-07-07T11:46:15.073Z,100666.23
2017-07-07T11:48:41.455Z,100658.83
2017-07-07T11:51:07.889Z,100661.76
2017-07-07T11:53:34.306Z,100661.27
2017-07-07T11:56:00.741Z,100658.05
2017-07-07T11:58:27.179Z,100659.01
2017-07-07T12:00:53.651Z,100658.83
2017-07-07T12:03:20.052Z,100667.33
2017-07-07T12:05:46.978Z,100664.98
2017-07-07T12:08:19.685Z,100666.17
2017-07-07T12:10:46.183Z,100668.89
2017-07-07T12:13:12.614Z,100663.42
2017-07-07T12:15:39.081Z,100663.48
2017-07-07T12:18:05.503Z,100661.09
2017-07-07T12:20:31.920Z,100656.06
2017-07-07T12:22:58.298Z,100658.67
2017-07-07T12:25:24.701Z,100659.38
2017-07-07T12:27:51.109Z,100654.95
2017-07-07T12:30:17.525Z,100653.05
2017-07-07T12:32:44.043Z,100660.66
2017-07-07T12:35:10.559Z,100658.23
2017-07-07T12:37:36.971Z,100669.91
2017-07-07T12:40:03.654Z,100658.36
2017-07-07T12:42:30.117Z,100658.02
2017-07-07T12:44:56.544Z,100666.69
2017-07-07T12:47:22.940Z,100663.85
2017-07-07T12:49:49.329Z,100662.15
2017-07-07T12:52:15.736Z,100658.44
2017-07-07T12:54:42.147Z,100654.54
2017-07-07T12:57:08.611Z,100648.86
2017-07-07T12:59:35.026Z,100658.41
2017-07-07T13:02:01.393Z,100652.75
2017-07-07T13:04:27.825Z,100652.53
2017-07-07T13:06:54.169Z,100641.03
2017-07-07T13:09:20.574Z,100650.20
2017-07-07T13:11:46.908Z,100651.25
2017-07-07T13:14:13.320Z,100646.67
2017-07-07T13:16:52.448Z,100658.22
2017-07-07T13:19:18.817Z,100660.33
2017-07-07T13:21:45.253Z,100667.47
2017-07-07T13:24:11.656Z,100662.62
2017-07-07T13:26:38.029Z,100670.71
2017-07-07T13:29:04.399Z,100658.94
2017-07-07T13:31:30.804Z,100658.44
2017-07-07T13:33:57.215Z,100669.30
2017-07-07T13:36:23.613Z,100662.59
2017-07-07T13:38:49.975Z,100663.82
2017-07-07T13:41:16.368Z,100662.97
2017-07-07T13:43:42.756Z,100657.70
2017-07-07T13:46:09.153Z,100656.72
2017-07-07T13:48:35.547Z,100667.26
2017-07-07T13:51:01.907Z,100666.40
2017-07-07T13:53:28.410Z,100670.42
2017-07-07T13:55:54.820Z,100668.63
2017-07-07T13:58:21.195Z,100665.70
2017-07-07T14:00:47.600Z,100665.45
2017-07-07T14:03:14.182Z,100665.06
2017-07-07T14:05:40.564Z,100666.13
2017-07-07T14:08:06.920Z,100662.84
2017-07-07T14:10:33.341Z,100664.98
2017-07-07T14:12:59.701Z,100667.65
2017-07-07T14:15:26.085Z,100659.85
2017-07-07T14:17:52.510Z,100658.83
2017-07-07T14:20:19.558Z,100656.54
2017-07-07T14:22:46.000Z,100646.58
2017-07-07T14:25:12.451Z,100664.88
2017-07-07T14:27:38.816Z,100662.44
2017-07-07T14:30:05.219Z,100659.72
2017-07-07T14:32:31.606Z,100651.08
2017-07-07T14:34:58.011Z,100647.66
2017-07-07T14:37:24.371Z,100643.84
2017-07-07T14:39:50.754Z,100652.86
2017-07-07T14:42:17.283Z,100652.28
2017-07-07T14:44:43.752Z,100652.42
2017-07-07T14:47:10.161Z,100652.33
2017-07-07T14:49:36.601Z,100657.05
2017-07-07T14:52:02.973Z,100660.16
2017-07-07T14:54:29.992Z,100651.77
2017-07-07T14:56:57.767Z,100655.59
2017-07-07T14:59:24.327Z,100653.28
2017-07-07T15:01:50.693Z,100660.02
2017-07-07T15:04:17.080Z,100660.94
2017-07-07T15:06:44.542Z,100666.90
2017-07-07T15:09:10.903Z,100667.55
2017-07-07T15:11:37.263Z,100668.18
2017-07-07T15:14:03.631Z,100657.61
2017-07-07T15:16:30.031Z,100664.41
2017-07-07T15:18:56.401Z,100663.40
2017-07-07T15:21:22.802Z,100670.98
2017-07-07T15:23:49.922Z,100654.86
2017-07-07T15:26:16.324Z,100662.38
2017-07-07T15:28:42.715Z,100666.90
2017-07-07T15:31:09.097Z,100666.48
2017-07-07T15:33:35.476Z,100657.80
2017-07-07T15:36:01.882Z,100656.65
2017-07-07T15:38:28.292Z,100648.13
2017-07-07T15:40:54.688Z,100654.88
2017-07-07T15:43:21.065Z,100655.98
2017-07-07T15:45:47.553Z,100657.87
2017-07-07T15:48:13.927Z,100668.06
2017-07-07T15:50:40.372Z,100659.07
2017-07-07T15:53:06.744Z,100650.77
2017-07-07T15:55:33.142Z,100654.53
2017-07-07T15:57:59.541Z,100655.73
2017-07-07T16:00:25.923Z,100660.41
2017-07-07T16:02:52.309Z,100662.23
2017-07-07T16:05:18.673Z,100662.41
2017-07-07T16:07:45.091Z,100658.37
2017-07-07T16:10:11.537Z,100661.55
2017-07-07T16:12:37.889Z,100655.52
2017-07-07T16:15:04.247Z,100664.80
2017-07-07T16:17:30.631Z,100665.58
2017-07-07T16:19:57.038Z,100662.79
2017-07-07T16:22:23.421Z,100667.46
2017-07-07T16:24:49.807Z,100661.86
2017-07-07T16:27:16.167Z,100667.91
2017-07-07T16:29:42.550Z,100668.92
2017-07-07T16:32:09.019Z,100667.34
2017-07-07T16:34:35.371Z,100664.95
2017-07-07T16:37:01.763Z,100672.58
2017-07-07T16:39:28.130Z,100667.83
2017-07-07T16:41:54.507Z,100658.73
2017-07-07T16:44:20.904Z,100664.33
2017-07-07T16:46:47.316Z,100666.96
2017-07-07T16:49:13.728Z,100667.17
2017-07-07T16:51:40.102Z,100661.72
2017-07-07T16:54:06.484Z,100664.10
2017-07-07T16:56:32.842Z,100662.93
2017-07-07T16:58:59.218Z,100670.86
2017-07-07T17:01:25.602Z,100676.17
2017-07-07T17:03:51.973Z,100672.59
2017-07-07T17:06:18.353Z,100676.66
2017-07-07T17:08:45.428Z,100678.06
2017-07-07T17:11:11.831Z,100681.11
2017-07-07T17:13:38.213Z,100692.92
2017-07-07T17:16:04.621Z,100692.41
2017-07-07T17:18:31.080Z,100696.10
2017-07-07T17:20:57.466Z,100704.27
2017-07-07T17:23:23.808Z,100701.98
2017-07-07T17:25:50.188Z,100701.57
2017-07-07T17:28:16.571Z,100703.20
2017-07-07T17:30:42.949Z,100703.41
2017-07-07T17:33:09.309Z,100706.01
2017-07-07T17:35:35.707Z,100701.69
2017-07-07T17:38:02.087Z,100708.27
2017-07-07T17:40:28.481Z,100709.35
2017-07-07T17:42:54.857Z,100712.17
2017-07-07T17:45:21.275Z,100718.86
2017-07-07T17:47:47.723Z,100725.67
2017-07-07T17:50:14.094Z,100729.52
2017-07-07T17:52:40.445Z,100732.41
2017-07-07T17:55:06.800Z,100727.98
2017-07-07T17:57:33.152Z,100730.33
2017-07-07T17:59:59.494Z,100735.66
2017-07-07T18:02:25.877Z,100739.36
2017-07-07T18:04:52.303Z,100739.30
2017-07-07T18:07:18.664Z,100740.41
2017-07-07T18:09:45.033Z,100743.44
2017-07-07T18:12:11.445Z,100739.21
2017-07-07T18:14:37.784Z,100744.91
2017-07-07T18:17:04.163Z,100744.43
2017-07-07T18:19:30.535Z,100746.02
2017-07-07T18:21:56.879Z,100737.44
2017-07-07T18:24:23.212Z,100740.58
2017-07-07T18:26:49.654Z,100747.78
2017-07-07T18:29:16.002Z,100746.05
2017-07-07T18:31:42.381Z,100755.72
2017-07-07T18:34:08.773Z,100747.64
2017-07-07T18:36:35.151Z,100750.44
2017-07-07T18:39:01.550Z,100752.48
2017-07-07T18:41:27.930Z,100751.72
2017-07-07T18:43:54.290Z,100750.59
2017-07-07T18:46:20.670Z,100752.77
2017-07-07T18:48:47.065Z,100753.86
2017-07-07T18:51:13.453Z,100752.05
2017-07-07T18:53:39.929Z,100756.55
2017-07-07T18:56:06.299Z,100760.73
2017-07-07T18:58:32.677Z,100762.37
2017-07-07T19:00:59.078Z,100768.79
2017-07-07T19:03:25.473Z,100768.18
2017-07-07T19:05:51.835Z,100772.97
2017-07-07T19:08:18.232Z,100774.37
2017-07-07T19:10:44.582Z,100767.63
2017-07-07T19:13:10.985Z,100772.56
2017-07-07T19:15:37.431Z,100770.48
2017-07-07T19:18:03.817Z,100768.73
2017-07-07T19:20:30.266Z,100778.66
2017-07-07T19:22:56.626Z,100777.52
2017-07-07T19:25:23.033Z,100781.78
2017-07-07T19:27:49.413Z,100781.69
2017-07-07T19:30:15.814Z,100778.15
2017-07-07T19:32:42.190Z,100785.76
2017-07-07T19:35:08.668Z,100788.22
2017-07-07T19:37:35.020Z,100787.24
2017-07-07T19:40:01.383Z,100793.11
2017-07-07T19:42:27.767Z,100798.04
2017-07-07T19:44:54.127Z,100801.50
2017-07-07T19:47:20.507Z,100806.81
2017-07-07T19:49:46.871Z,100809.91
2017-07-07T19:52:13.247Z,100811.28
2017-07-07T19:54:39.631Z,100822.88
2017-07-07T19:57:05.988Z,100824.33
2017-07-07T19:59:32.380Z,100826.94
2017-07-07T20:01:58.818Z,100834.23
2017-07-07T20:04:25.241Z,100837.92
2017-07-07T20:06:51.601Z,100831.59
2017-07-07T20:09:17.960Z,100825.84
2017-07-07T20:11:44.301Z,100836.64
2017-07-07T20:14:10.663Z,100839.97
2017-07-07T20:16:37.034Z,100838.84
2017-07-07T20:19:03.409Z,100847.27
2017-07-07T20:21:29.825Z,100848.58
2017-07-07T20:23:56.231Z,100853.67
2017-07-07T20:26:22.591Z,100850.64
2017-07-07T20:28:48.996Z,100853.16
2017-07-07T20:31:15.402Z,100856.27
2017-07-07T20:33:41.787Z,100857.67
2017-07-07T20:36:08.142Z,100862.83
2017-07-07T20:38:34.495Z,100860.23
2017-07-07T20:41:00.849Z,100863.84
2017-07-07T20:43:27.256Z,100860.73
2017-07-07T20:45:53.705Z,100860.23
2017-07-07T20:48:20.096Z,100860.36
2017-07-07T20:50:46.495Z,100865.20
2017-07-07T20:53:12.891Z,100850.89
2017-07-07T20:55:46.177Z,100854.86
2017-07-07T20:58:12.570Z,100851.43
2017-07-07T21:00:38.944Z,100854.41
2017-07-07T21:03:05.334Z,100856.46
2017-07-07T21:05:31.695Z,100860.17
2017-07-07T21:07:58.071Z,100867.44
2017-07-07T21:10:24.442Z,100870.92
2017-07-07T21:12:57.340Z,100878.36
2017-07-07T21:15:27.821Z,100872.25
2017-07-07T21:40:48.321Z,100892.61
2017-07-07T21:43:14.697Z,100885.95
2017-07-07T21:45:41.188Z,100896.71
2017-07-07T21:48:07.692Z,100893.67
2017-07-07T21:50:34.102Z,100897.07
2017-07-07T21:53:00.609Z,100899.77
2017-07-07T21:55:26.978Z,100905.47
2017-07-07T21:57:53.420Z,100899.44
2017-07-07T22:00:19.801Z,100904.21
2017-07-07T22:02:46.176Z,100895.52
2017-07-07T22:05:12.551Z,100900.17
2017-07-07T22:07:38.909Z,100905.58
2017-07-07T22:10:05.397Z,100896.73
2017-07-07T22:12:31.792Z,100897.09
2017-07-07T22:14:58.216Z,100896.56
2017-07-07T22:17:24.591Z,100898.98
2017-07-07T22:19:51.007Z,100892.99
2017-07-07T22:22:17.375Z,100895.03
2017-07-07T22:24:43.759Z,100897.41
2017-07-07T22:27:10.134Z,100896.64
2017-07-07T22:29:36.523Z,100901.14
2017-07-07T22:32:02.915Z,100903.49
2017-07-07T22:34:29.338Z,100894.77
2017-07-07T22:36:55.765Z,100898.21
2017-07-07T22:39:22.169Z,100898.34
2017-07-07T22:41:48.586Z,100898.08
2017-07-07T22:44:15.011Z,100885.28
2017-07-07T22:46:41.419Z,100890.74
2017-07-07T22:49:07.865Z,100891.14
2017-07-07T22:51:34.285Z,100902.84
2017-07-07T22:54:00.691Z,100901.66
2017-07-07T22:56:27.082Z,100902.09
2017-07-07T22:58:53.487Z,100904.75
2017-07-07T23:01:19.879Z,100901.98
2017-07-07T23:03:46.274Z,100904.41
2017-07-07T23:06:12.686Z,100907.69
2017-07-07T23:08:39.087Z,100906.11
2017-07-07T23:11:05.503Z,100902.52
2017-07-07T23:13:31.853Z,100904.10
2017-07-07T23:15:58.240Z,100911.67
2017-07-07T23:18:24.627Z,100899.55
2017-07-07T23:20:50.988Z,100906.13
2017-07-07T23:23:17.335Z,100906.01
2017-07-07T23:25:43.715Z,100904.39
2017-07-07T23:28:10.097Z,100906.27
2017-07-07T23:30:36.486Z,100903.36
2017-07-07T23:33:02.876Z,100904.52
2017-07-07T23:35:29.312Z,100905.03
2017-07-07T23:37:55.737Z,100903.58
2017-07-07T23:40:22.123Z,100898.63
2017-07-07T23:42:48.551Z,100901.77
2017-07-07T23:45:14.935Z,100907.80
2017-07-07T23:47:41.346Z,100909.17
2017-07-07T23:50:07.722Z,100907.44
2017-07-07T23:52:34.117Z,100907.37
2017-07-07T23:55:00.510Z,100913.05
2017-07-07T23:57:26.933Z,100912.87
2017-07-07T23:59:53.329Z,100902.89
